Weather at Bowie Airport (1953) [CLOSED]

Public forecast

Using degrees Fahrenheit for public forecast. Weather courtesy of forecast.io.

Closest aviation weather report (METAR) to Bowie Airport (1953)

Closest report is Safford Regional Airport, 32.2 nm (59.7 km) NNW. Retrieved 2021/09/28 12:51 UTC (45 minutes ago):

KSAD 281251Z AUTO 08004KT 10SM BKN065 17/17 A2998 RMK AO2 SLP112 T01720172

Closest aviation forecast (TAF) to Bowie Airport (1953)

Forecast is more than 12 hours old.

Closest forecast is Bisbee Douglas International Airport, 52.5 nm (97.2 km) S. Retrieved 2021-06-01 00:33 UTC (4 months ago):

TAF KDUG 202331Z 2100/2124 12009KT P6SM SCT035 BKN060 TEMPO 2100/2102 6SM -SHRA BR BKN035 FM210300 09009KT 5SM -SHRA BR SCT015 OVC030 FM210700 VRB05KT 6SM SHRA BR FEW009 SCT014 OVC025 FM211500 VRB05KT P6SM SHRA SCT016 OVC030 FM212200 22009KT P6SM VCSH SCT027 BKN035